sensor_id;sensor_type;location;lat;lon;timestamp;pressure;altitude;pressure_sealevel;temperature;humidity
48027;BME280;50714;49.208;5.364;2023-05-19T00:07:43;100066.28;;;11.88;51.39
48027;BME280;50714;49.208;5.364;2023-05-19T00:17:45;100063.78;;;11.86;51.77
48027;BME280;50714;49.208;5.364;2023-05-19T00:27:45;100058.47;;;12.00;51.87
48027;BME280;50714;49.208;5.364;2023-05-19T00:37:46;100060.97;;;12.01;52.27
48027;BME280;50714;49.208;5.364;2023-05-19T00:47:46;100052.63;;;11.96;52.39
48027;BME280;50714;49.208;5.364;2023-05-19T00:57:48;100058.38;;;11.86;52.67
48027;BME280;50714;49.208;5.364;2023-05-19T01:07:49;100043.25;;;11.71;53.06
48027;BME280;50714;49.208;5.364;2023-05-19T01:18:13;100048.22;;;11.67;55.12
48027;BME280;50714;49.208;5.364;2023-05-19T01:38:27;100029.03;;;11.55;53.71
48027;BME280;50714;49.208;5.364;2023-05-19T01:48:29;100032.09;;;11.24;54.17
48027;BME280;50714;49.208;5.364;2023-05-19T01:58:46;100045.22;;;11.06;56.59
48027;BME280;50714;49.208;5.364;2023-05-19T02:09:07;100046.63;;;10.81;57.13
48027;BME280;50714;49.208;5.364;2023-05-19T02:19:24;100049.16;;;10.68;57.46
48027;BME280;50714;49.208;5.364;2023-05-19T02:29:25;100046.69;;;10.51;55.49
48027;BME280;50714;49.208;5.364;2023-05-19T02:39:25;100031.22;;;10.39;56.21
48027;BME280;50714;49.208;5.364;2023-05-19T02:49:26;100035.22;;;10.28;56.32
48027;BME280;50714;49.208;5.364;2023-05-19T02:59:29;100031.78;;;10.19;56.82
48027;BME280;50714;49.208;5.364;2023-05-19T03:09:30;100024.22;;;10.15;56.89
48027;BME280;50714;49.208;5.364;2023-05-19T03:19:30;100028.41;;;10.03;57.28
48027;BME280;50714;49.208;5.364;2023-05-19T03:29:31;100030.81;;;9.98;57.42
48027;BME280;50714;49.208;5.364;2023-05-19T03:39:32;100039.66;;;9.77;57.99
48027;BME280;50714;49.208;5.364;2023-05-19T03:49:32;100036.13;;;9.76;58.22
48027;BME280;50714;49.208;5.364;2023-05-19T03:59:32;100040.78;;;9.82;58.53
48027;BME280;50714;49.208;5.364;2023-05-19T04:09:34;100042.34;;;9.77;58.46
48027;BME280;50714;49.208;5.364;2023-05-19T04:19:35;100047.44;;;9.72;58.68
48027;BME280;50714;49.208;5.364;2023-05-19T04:29:35;100039.38;;;9.72;58.78
48027;BME280;50714;49.208;5.364;2023-05-19T04:39:35;100041.44;;;9.84;59.05
48027;BME280;50714;49.208;5.364;2023-05-19T04:49:38;100047.38;;;9.95;59.50
48027;BME280;50714;49.208;5.364;2023-05-19T04:59:39;100051.50;;;10.35;59.58
48027;BME280;50714;49.208;5.364;2023-05-19T05:09:39;100050.56;;;10.64;59.45
48027;BME280;50714;49.208;5.364;2023-05-19T05:19:40;100056.53;;;10.95;59.56
48027;BME280;50714;49.208;5.364;2023-05-19T05:29:41;100055.00;;;11.28;59.29
48027;BME280;50714;49.208;5.364;2023-05-19T05:39:41;100052.81;;;11.67;59.11
48027;BME280;50714;49.208;5.364;2023-05-19T05:49:42;100034.59;;;12.10;57.18
48027;BME280;50714;49.208;5.364;2023-05-19T05:59:43;100027.50;;;12.56;57.33
48027;BME280;50714;49.208;5.364;2023-05-19T06:09:44;100032.00;;;13.10;56.30
48027;BME280;50714;49.208;5.364;2023-05-19T06:19:44;100037.25;;;13.71;55.22
48027;BME280;50714;49.208;5.364;2023-05-19T06:29:45;100041.84;;;14.55;55.05
48027;BME280;50714;49.208;5.364;2023-05-19T06:39:45;100035.94;;;15.34;52.79
48027;BME280;50714;49.208;5.364;2023-05-19T06:49:46;100048.00;;;15.94;51.42
48027;BME280;50714;49.208;5.364;2023-05-19T06:59:49;100042.84;;;16.41;50.01
48027;BME280;50714;49.208;5.364;2023-05-19T07:09:50;100031.84;;;16.84;49.15
48027;BME280;50714;49.208;5.364;2023-05-19T07:19:50;100032.34;;;17.34;47.76
48027;BME280;50714;49.208;5.364;2023-05-19T07:29:50;100027.91;;;17.75;47.45
48027;BME280;50714;49.208;5.364;2023-05-19T07:39:51;100032.06;;;17.89;46.28
48027;BME280;50714;49.208;5.364;2023-05-19T07:49:51;100030.56;;;18.45;46.20
48027;BME280;50714;49.208;5.364;2023-05-19T07:59:51;100025.34;;;18.84;45.05
48027;BME280;50714;49.208;5.364;2023-05-19T08:09:52;100011.53;;;19.69;44.83
48027;BME280;50714;49.208;5.364;2023-05-19T08:19:52;100005.53;;;20.71;43.99
48027;BME280;50714;49.208;5.364;2023-05-19T08:29:52;99996.00;;;22.06;42.76
48027;BME280;50714;49.208;5.364;2023-05-19T08:39:54;99994.75;;;23.37;41.62
48027;BME280;50714;49.208;5.364;2023-05-19T08:50:01;99983.03;;;25.64;37.05
48027;BME280;50714;49.208;5.364;2023-05-19T09:00:03;99988.19;;;29.02;35.07
48027;BME280;50714;49.208;5.364;2023-05-19T09:10:08;99989.50;;;31.08;32.42
48027;BME280;50714;49.208;5.364;2023-05-19T09:20:13;99972.56;;;31.82;31.25
48027;BME280;50714;49.208;5.364;2023-05-19T09:30:16;99959.16;;;32.43;28.33
48027;BME280;50714;49.208;5.364;2023-05-19T09:40:17;99948.81;;;33.47;27.58
48027;BME280;50714;49.208;5.364;2023-05-19T09:50:17;99943.38;;;32.68;26.68
48027;BME280;50714;49.208;5.364;2023-05-19T10:00:18;99927.41;;;32.77;25.84
48027;BME280;50714;49.208;5.364;2023-05-19T10:10:20;99922.75;;;32.31;25.74
48027;BME280;50714;49.208;5.364;2023-05-19T10:20:21;99914.56;;;32.26;26.19
48027;BME280;50714;49.208;5.364;2023-05-19T10:30:26;99918.47;;;33.37;23.98
48027;BME280;50714;49.208;5.364;2023-05-19T10:40:32;99907.38;;;33.74;22.57
48027;BME280;50714;49.208;5.364;2023-05-19T10:50:35;99900.97;;;32.86;24.46
48027;BME280;50714;49.208;5.364;2023-05-19T11:00:39;99897.97;;;31.36;23.36
48027;BME280;50714;49.208;5.364;2023-05-19T11:10:43;99886.44;;;31.46;23.53
48027;BME280;50714;49.208;5.364;2023-05-19T11:20:54;99878.97;;;30.77;23.52
48027;BME280;50714;49.208;5.364;2023-05-19T11:30:57;99878.53;;;32.33;23.04
48027;BME280;50714;49.208;5.364;2023-05-19T11:40:59;99852.53;;;29.66;24.72
48027;BME280;50714;49.208;5.364;2023-05-19T13:15:30;99810.25;;;22.71;29.38
48027;BME280;50714;49.208;5.364;2023-05-19T13:25:33;99797.88;;;22.69;29.66
48027;BME280;50714;49.208;5.364;2023-05-19T13:35:34;99799.28;;;22.87;30.23
48027;BME280;50714;49.208;5.364;2023-05-19T13:45:37;99787.16;;;22.93;29.88
48027;BME280;50714;49.208;5.364;2023-05-19T13:55:37;99787.38;;;23.27;29.68
48027;BME280;50714;49.208;5.364;2023-05-19T14:05:38;99795.97;;;22.95;30.46
48027;BME280;50714;49.208;5.364;2023-05-19T14:15:38;99775.88;;;23.04;29.83
48027;BME280;50714;49.208;5.364;2023-05-19T14:25:38;99764.84;;;23.09;30.73
48027;BME280;50714;49.208;5.364;2023-05-19T14:35:39;99759.66;;;22.83;29.90
48027;BME280;50714;49.208;5.364;2023-05-19T14:45:39;99754.69;;;22.59;30.60
48027;BME280;50714;49.208;5.364;2023-05-19T14:55:41;99749.47;;;22.58;31.19
48027;BME280;50714;49.208;5.364;2023-05-19T15:05:42;99755.53;;;22.55;30.92
48027;BME280;50714;49.208;5.364;2023-05-19T15:15:42;99750.81;;;22.04;31.26
48027;BME280;50714;49.208;5.364;2023-05-19T15:25:42;99743.09;;;21.96;31.96
48027;BME280;50714;49.208;5.364;2023-05-19T15:35:44;99733.19;;;21.90;31.89
48027;BME280;50714;49.208;5.364;2023-05-19T15:45:46;99736.97;;;21.69;32.19
48027;BME280;50714;49.208;5.364;2023-05-19T15:55:47;99727.88;;;21.63;32.47
48027;BME280;50714;49.208;5.364;2023-05-19T16:05:47;99734.69;;;21.51;32.57
48027;BME280;50714;49.208;5.364;2023-05-19T16:15:48;99718.84;;;21.10;33.18
48027;BME280;50714;49.208;5.364;2023-05-19T16:25:48;99710.94;;;21.19;33.64
48027;BME280;50714;49.208;5.364;2023-05-19T16:35:48;99690.97;;;21.29;33.62
48027;BME280;50714;49.208;5.364;2023-05-19T16:45:49;99697.63;;;20.91;33.69
48027;BME280;50714;49.208;5.364;2023-05-19T16:55:49;99704.88;;;20.65;34.21
48027;BME280;50714;49.208;5.364;2023-05-19T17:05:49;99701.47;;;20.48;34.41
48027;BME280;50714;49.208;5.364;2023-05-19T17:15:50;99701.69;;;20.41;34.71
48027;BME280;50714;49.208;5.364;2023-05-19T17:25:54;99709.00;;;20.35;35.63
48027;BME280;50714;49.208;5.364;2023-05-19T17:35:55;99710.91;;;20.35;35.80
48027;BME280;50714;49.208;5.364;2023-05-19T17:45:55;99709.75;;;20.26;35.82
48027;BME280;50714;49.208;5.364;2023-05-19T17:55:57;99716.22;;;20.15;36.11
48027;BME280;50714;49.208;5.364;2023-05-19T18:05:59;99720.50;;;20.00;37.13
48027;BME280;50714;49.208;5.364;2023-05-19T18:15:59;99713.19;;;19.84;36.95
48027;BME280;50714;49.208;5.364;2023-05-19T18:25:59;99718.00;;;19.72;37.44
48027;BME280;50714;49.208;5.364;2023-05-19T18:36:00;99713.25;;;19.62;37.95
48027;BME280;50714;49.208;5.364;2023-05-19T18:46:00;99719.03;;;19.44;37.93
48027;BME280;50714;49.208;5.364;2023-05-19T18:56:04;99728.72;;;19.30;38.57
48027;BME280;50714;49.208;5.364;2023-05-19T19:06:05;99723.34;;;19.18;38.63
48027;BME280;50714;49.208;5.364;2023-05-19T19:16:05;99730.88;;;19.06;38.93
48027;BME280;50714;49.208;5.364;2023-05-19T19:26:06;99732.94;;;18.99;39.02
48027;BME280;50714;49.208;5.364;2023-05-19T19:36:09;99741.78;;;18.84;39.53
48027;BME280;50714;49.208;5.364;2023-05-19T19:46:10;99758.84;;;18.74;39.41
48027;BME280;50714;49.208;5.364;2023-05-19T19:56:10;99759.25;;;18.66;40.10
48027;BME280;50714;49.208;5.364;2023-05-19T20:06:10;99762.56;;;18.68;40.51
48027;BME280;50714;49.208;5.364;2023-05-19T20:16:11;99776.56;;;18.55;40.98
48027;BME280;50714;49.208;5.364;2023-05-19T20:26:11;99774.06;;;18.37;41.72
48027;BME280;50714;49.208;5.364;2023-05-19T20:36:11;99778.38;;;18.33;42.27
48027;BME280;50714;49.208;5.364;2023-05-19T20:46:12;99791.94;;;18.28;42.30
48027;BME280;50714;49.208;5.364;2023-05-19T20:56:12;99782.31;;;18.09;43.20
48027;BME280;50714;49.208;5.364;2023-05-19T21:06:13;99778.47;;;17.93;44.02
48027;BME280;50714;49.208;5.364;2023-05-19T21:16:13;99780.47;;;17.69;44.21
48027;BME280;50714;49.208;5.364;2023-05-19T21:26:13;99769.38;;;17.47;45.08
48027;BME280;50714;49.208;5.364;2023-05-19T21:36:14;99769.66;;;17.22;45.51
48027;BME280;50714;49.208;5.364;2023-05-19T21:46:15;99763.84;;;17.07;46.34
48027;BME280;50714;49.208;5.364;2023-05-19T21:56:15;99761.59;;;17.04;46.87
48027;BME280;50714;49.208;5.364;2023-05-19T22:06:16;99753.78;;;16.96;47.46
48027;BME280;50714;49.208;5.364;2023-05-19T22:16:16;99752.50;;;16.87;47.96
48027;BME280;50714;49.208;5.364;2023-05-19T22:26:17;99745.75;;;16.66;48.32
48027;BME280;50714;49.208;5.364;2023-05-19T22:36:17;99745.81;;;16.48;49.10
48027;BME280;50714;49.208;5.364;2023-05-19T22:46:17;99746.66;;;16.48;49.03
48027;BME280;50714;49.208;5.364;2023-05-19T22:56:18;99735.25;;;16.40;49.65
48027;BME280;50714;49.208;5.364;2023-05-19T23:06:18;99732.66;;;16.33;50.00
48027;BME280;50714;49.208;5.364;2023-05-19T23:16:18;99721.63;;;16.16;50.53
48027;BME280;50714;49.208;5.364;2023-05-19T23:26:19;99718.75;;;16.11;50.49
48027;BME280;50714;49.208;5.364;2023-05-19T23:36:20;99709.66;;;16.06;50.64
48027;BME280;50714;49.208;5.364;2023-05-19T23:46:20;99708.78;;;15.93;50.93
48027;BME280;50714;49.208;5.364;2023-05-19T23:56:21;99704.72;;;15.84;50.78
